Terminal Aerodrome Forecast
Issued by NWS

Home | Current Version | Previous Version | Graphics & Text | Print | Product List | Glossary On
Versions: 1 2 3 4 5 6 7 8 9 10 11 12 13 14 15
059
FTUS45 KGGW 161720
TAFSDY
TAF
KSDY 161720Z 1618/1718 28016G25KT P6SM FEW250
     FM170100 26005KT P6SM FEW250
     FM170900 22005KT P6SM FEW250 WS020/27035KT
     FM171500 23012KT P6SM SKC=

USA.gov is the U.S. government's official web portal to all federal, state and local government web resources and services.